createdAt,value
2019-02-17T00:05:02.511Z,0.57
2019-02-17T00:16:00.517Z,0.39
2019-02-17T00:27:03.868Z,0.42
2019-02-17T00:38:07.348Z,0.31
2019-02-17T00:49:07.913Z,0.21
2019-02-17T01:00:08.778Z,0.31
2019-02-17T01:11:09.047Z,-0.05
2019-02-17T01:22:05.824Z,0.07
2019-02-17T01:33:03.561Z,-0.05
2019-02-17T01:44:05.461Z,-0.04
2019-02-17T01:55:05.520Z,-0.05
2019-02-17T02:06:08.202Z,0.07
2019-02-17T02:16:55.361Z,-0.14
2019-02-17T02:27:58.765Z,-0.22
2019-02-17T02:39:02.483Z,-0.15
2019-02-17T02:50:02.734Z,-0.38
2019-02-17T03:01:03.873Z,-0.33
2019-02-17T03:12:04.531Z,-0.40
2019-02-17T03:23:03.438Z,-0.47
2019-02-17T03:34:07.600Z,-0.50
2019-02-17T03:45:08.488Z,-0.50
2019-02-17T03:56:06.668Z,-0.65
2019-02-17T04:07:05.196Z,-0.71
2019-02-17T04:18:07.059Z,-0.76
2019-02-17T04:29:11.466Z,-0.77
2019-02-17T04:40:10.889Z,-0.82
2019-02-17T04:51:07.804Z,-0.91
2019-02-17T05:02:09.414Z,-0.71
2019-02-17T05:13:12.070Z,-0.82
2019-02-17T05:24:09.521Z,-0.77
2019-02-17T05:35:14.333Z,-0.83
2019-02-17T05:46:13.566Z,-0.93
2019-02-17T05:57:14.268Z,-1.08
2019-02-17T06:08:18.255Z,-0.95
2019-02-17T06:19:17.768Z,-0.93
2019-02-17T06:30:20.631Z,-1.01
2019-02-17T06:41:20.778Z,-0.65
2019-02-17T06:52:21.031Z,-0.29
2019-02-17T07:03:25.800Z,0.11
2019-02-17T07:14:23.997Z,0.49
2019-02-17T07:25:29.700Z,1.01
2019-02-17T07:36:28.361Z,1.74
2019-02-17T07:47:30.468Z,2.42
2019-02-17T07:58:36.099Z,3.47
2019-02-17T08:09:36.499Z,4.16
2019-02-17T08:20:39.947Z,4.69
2019-02-17T08:31:54.856Z,5.63
2019-02-17T08:42:53.768Z,6.29
2019-02-17T08:53:32.682Z,7.08
2019-02-17T09:04:33.213Z,7.78
2019-02-17T09:15:35.161Z,8.68
2019-02-17T09:26:32.930Z,9.45
2019-02-17T09:37:37.169Z,10.46
2019-02-17T09:48:35.858Z,11.39
2019-02-17T09:59:39.570Z,12.11
2019-02-17T10:10:43.548Z,12.84
2019-02-17T10:21:37.322Z,13.14
2019-02-17T10:32:39.721Z,13.61
2019-02-17T10:43:37.613Z,14.16
2019-02-17T10:54:33.762Z,14.49
2019-02-17T11:05:36.319Z,14.95
2019-02-17T11:16:12.868Z,16.67
2019-02-17T11:26:50.079Z,18.02
2019-02-17T11:37:32.283Z,18.80
2019-02-17T11:48:14.804Z,19.39
2019-02-17T11:58:57.563Z,18.79
2019-02-17T12:09:36.287Z,18.32
2019-02-17T12:20:05.841Z,18.68
2019-02-17T12:30:46.461Z,18.52
2019-02-17T12:41:22.379Z,18.50
2019-02-17T12:51:59.400Z,19.18
2019-02-17T13:02:35.798Z,18.39
2019-02-17T13:13:10.665Z,18.74
2019-02-17T13:23:48.573Z,19.50
2019-02-17T13:34:30.379Z,19.51
2019-02-17T13:45:07.862Z,19.15
2019-02-17T13:55:47.374Z,20.26
2019-02-17T14:06:07.940Z,20.03
2019-02-17T14:16:47.110Z,20.13
2019-02-17T14:27:27.108Z,19.38
2019-02-17T14:38:03.453Z,18.46
2019-02-17T14:48:42.804Z,17.57
2019-02-17T14:59:22.971Z,16.98
2019-02-17T15:10:00.339Z,16.47
2019-02-17T15:20:38.624Z,16.10
2019-02-17T15:31:18.259Z,15.43
2019-02-17T15:41:53.805Z,14.75
2019-02-17T15:52:51.889Z,13.71
2019-02-17T16:03:50.806Z,11.90
2019-02-17T16:14:41.928Z,10.78
2019-02-17T16:25:40.222Z,9.67
2019-02-17T16:36:36.573Z,9.29
2019-02-17T16:47:32.002Z,9.24
2019-02-17T16:58:33.498Z,8.72
2019-02-17T17:09:34.284Z,8.43
2019-02-17T17:20:32.689Z,6.93
2019-02-17T17:31:28.522Z,6.70
2019-02-17T17:42:23.291Z,5.99
2019-02-17T17:53:16.212Z,5.47
2019-02-17T18:04:15.195Z,5.16
2019-02-17T18:15:09.614Z,4.73
2019-02-17T18:26:08.342Z,4.52
2019-02-17T18:36:56.331Z,4.28
2019-02-17T18:47:51.564Z,4.07
2019-02-17T18:58:48.089Z,3.94
2019-02-17T19:09:45.229Z,3.80
2019-02-17T19:20:40.454Z,3.50
2019-02-17T19:31:37.053Z,3.35
2019-02-17T19:42:13.688Z,3.22
2019-02-17T19:53:16.366Z,3.03
2019-02-17T20:04:12.798Z,2.73
2019-02-17T20:15:03.817Z,2.81
2019-02-17T20:25:55.158Z,2.67
2019-02-17T20:36:48.259Z,2.74
2019-02-17T20:47:45.647Z,2.34
2019-02-17T20:58:44.204Z,2.12
2019-02-17T21:09:44.465Z,1.87
2019-02-17T21:20:42.255Z,1.48
2019-02-17T21:31:41.438Z,1.50
2019-02-17T21:42:34.235Z,1.44
2019-02-17T21:53:31.349Z,1.41
2019-02-17T22:04:35.883Z,1.40
2019-02-17T22:15:37.890Z,1.28
2019-02-17T22:26:27.729Z,1.26
2019-02-17T22:37:19.240Z,1.02
2019-02-17T22:48:15.973Z,1.10
2019-02-17T22:59:17.607Z,1.00
2019-02-17T23:10:21.266Z,0.90
2019-02-17T23:21:21.950Z,0.82
2019-02-17T23:32:21.212Z,0.71
2019-02-17T23:43:18.731Z,0.52
2019-02-17T23:54:20.004Z,0.57
